Saint James City, Florida
Current Conditions -  °F | °C
As of 12:53 AM on Monday 26 Jan 2015 (Local Time) from KFMY Reporting Station
Clear Clear  
Wind Chill: 55°   Ceiling: Unl
Heat Index: 55°   Visibility: 10mi
Dew Point: 54°   Wind: 6mph
Humidity: 96%   Direction: 160°SSE
Pressure: 29.95"   Gusts: NA
Location:  26.5°N, 82.08°W
Report Text: KFMY 260553Z AUTO 16005KT 10SM CLR 13/12 A2995 RMK AO2 SLP145 T01280122 10150 20117 58021
Loading
Personal Weather Stations






























Interactive Weather Map New forecast layout! Learn more

10-Day Weather Forecast

Advertisements
Track Severe Weather on mobile